sensor_id;sensor_type;location;lat;lon;timestamp;temperature;humidity
55365;DHT22;41245;45.384;20.390;2023-06-10T00:01:37;512.60;128.00
55365;DHT22;41245;45.384;20.390;2023-06-10T00:04:03;512.40;128.00
55365;DHT22;41245;45.384;20.390;2023-06-10T00:06:29;512.50;128.00
55365;DHT22;41245;45.384;20.390;2023-06-10T00:09:05;512.30;128.00
55365;DHT22;41245;45.384;20.390;2023-06-10T00:11:32;512.40;128.00
55365;DHT22;41245;45.384;20.390;2023-06-10T00:13:58;512.30;128.00
55365;DHT22;41245;45.384;20.390;2023-06-10T00:16:24;512.40;128.00
55365;DHT22;41245;45.384;20.390;2023-06-10T00:18:50;512.40;128.00
55365;DHT22;41245;45.384;20.390;2023-06-10T00:21:17;512.30;128.00
55365;DHT22;41245;45.384;20.390;2023-06-10T00:23:42;512.30;128.00
55365;DHT22;41245;45.384;20.390;2023-06-10T00:26:09;512.30;128.00
55365;DHT22;41245;45.384;20.390;2023-06-10T00:28:35;512.40;128.00
55365;DHT22;41245;45.384;20.390;2023-06-10T00:31:01;512.30;128.00
55365;DHT22;41245;45.384;20.390;2023-06-10T00:33:27;512.30;128.00
55365;DHT22;41245;45.384;20.390;2023-06-10T00:35:53;512.30;128.00
55365;DHT22;41245;45.384;20.390;2023-06-10T00:38:19;512.30;128.00
55365;DHT22;41245;45.384;20.390;2023-06-10T00:40:45;512.30;128.00
55365;DHT22;41245;45.384;20.390;2023-06-10T00:43:10;512.30;128.00
55365;DHT22;41245;45.384;20.390;2023-06-10T00:45:36;512.30;128.00
55365;DHT22;41245;45.384;20.390;2023-06-10T00:48:03;512.20;128.00
55365;DHT22;41245;45.384;20.390;2023-06-10T00:50:29;512.20;128.00
55365;DHT22;41245;45.384;20.390;2023-06-10T00:52:56;512.30;128.00
55365;DHT22;41245;45.384;20.390;2023-06-10T00:55:23;512.20;128.00
55365;DHT22;41245;45.384;20.390;2023-06-10T00:57:50;512.20;128.00
55365;DHT22;41245;45.384;20.390;2023-06-10T01:00:17;512.10;128.00
55365;DHT22;41245;45.384;20.390;2023-06-10T01:02:43;512.10;128.00
55365;DHT22;41245;45.384;20.390;2023-06-10T01:05:09;512.10;128.00
55365;DHT22;41245;45.384;20.390;2023-06-10T01:12:49;512.20;128.00
55365;DHT22;41245;45.384;20.390;2023-06-10T01:15:18;512.10;128.00
55365;DHT22;41245;45.384;20.390;2023-06-10T01:20:28;512.10;128.00
55365;DHT22;41245;45.384;20.390;2023-06-10T01:22:55;512.10;128.00
55365;DHT22;41245;45.384;20.390;2023-06-10T01:25:22;512.10;128.00
55365;DHT22;41245;45.384;20.390;2023-06-10T01:28:19;512.10;128.00
55365;DHT22;41245;45.384;20.390;2023-06-10T01:33:31;512.10;128.00
55365;DHT22;41245;45.384;20.390;2023-06-10T01:35:59;512.10;128.00
55365;DHT22;41245;45.384;20.390;2023-06-10T01:38:27;512.10;128.00
55365;DHT22;41245;45.384;20.390;2023-06-10T01:40:56;512.10;128.00
55365;DHT22;41245;45.384;20.390;2023-06-10T01:43:23;512.10;128.00
55365;DHT22;41245;45.384;20.390;2023-06-10T01:45:49;512.10;128.00
55365;DHT22;41245;45.384;20.390;2023-06-10T01:48:15;512.10;128.00
55365;DHT22;41245;45.384;20.390;2023-06-10T01:50:40;512.10;128.00
55365;DHT22;41245;45.384;20.390;2023-06-10T01:53:06;512.10;128.00
55365;DHT22;41245;45.384;20.390;2023-06-10T01:55:32;512.10;128.00
55365;DHT22;41245;45.384;20.390;2023-06-10T01:57:57;512.00;128.00
55365;DHT22;41245;45.384;20.390;2023-06-10T02:00:23;512.00;128.00
55365;DHT22;41245;45.384;20.390;2023-06-10T02:02:49;512.00;128.00
55365;DHT22;41245;45.384;20.390;2023-06-10T02:05:15;512.10;128.00
55365;DHT22;41245;45.384;20.390;2023-06-10T02:07:40;512.10;128.00
55365;DHT22;41245;45.384;20.390;2023-06-10T02:10:07;512.10;128.00
55365;DHT22;41245;45.384;20.390;2023-06-10T02:12:32;512.00;128.00
55365;DHT22;41245;45.384;20.390;2023-06-10T02:14:58;512.00;128.00
55365;DHT22;41245;45.384;20.390;2023-06-10T02:17:24;512.10;128.00
55365;DHT22;41245;45.384;20.390;2023-06-10T02:19:50;512.10;128.00
55365;DHT22;41245;45.384;20.390;2023-06-10T02:22:22;512.10;128.00
55365;DHT22;41245;45.384;20.390;2023-06-10T02:24:48;512.00;128.00
55365;DHT22;41245;45.384;20.390;2023-06-10T02:27:15;512.20;128.00
55365;DHT22;41245;45.384;20.390;2023-06-10T02:29:41;512.00;128.00
55365;DHT22;41245;45.384;20.390;2023-06-10T02:32:07;512.00;128.00
55365;DHT22;41245;45.384;20.390;2023-06-10T02:34:33;512.10;128.00
55365;DHT22;41245;45.384;20.390;2023-06-10T02:36:59;512.20;128.00
55365;DHT22;41245;45.384;20.390;2023-06-10T02:39:25;512.30;128.00
55365;DHT22;41245;45.384;20.390;2023-06-10T02:41:50;512.30;128.00
55365;DHT22;41245;45.384;20.390;2023-06-10T02:44:18;512.40;128.00
55365;DHT22;41245;45.384;20.390;2023-06-10T02:46:44;512.40;128.00
55365;DHT22;41245;45.384;20.390;2023-06-10T02:49:11;512.40;128.00
55365;DHT22;41245;45.384;20.390;2023-06-10T02:51:37;512.40;128.00
55365;DHT22;41245;45.384;20.390;2023-06-10T02:54:03;512.50;128.00
55365;DHT22;41245;45.384;20.390;2023-06-10T02:56:28;512.50;128.00
55365;DHT22;41245;45.384;20.390;2023-06-10T02:58:54;512.60;128.00
55365;DHT22;41245;45.384;20.390;2023-06-10T03:01:21;512.70;128.00
55365;DHT22;41245;45.384;20.390;2023-06-10T03:03:47;512.70;128.00
55365;DHT22;41245;45.384;20.390;2023-06-10T03:06:13;512.80;128.00
55365;DHT22;41245;45.384;20.390;2023-06-10T03:08:39;537.60;128.00
55365;DHT22;41245;45.384;20.390;2023-06-10T03:11:05;537.70;128.00
55365;DHT22;41245;45.384;20.390;2023-06-10T03:13:32;537.80;128.00
55365;DHT22;41245;45.384;20.390;2023-06-10T03:15:57;538.00;128.00
55365;DHT22;41245;45.384;20.390;2023-06-10T03:18:26;538.10;128.00
55365;DHT22;41245;45.384;20.390;2023-06-10T03:20:53;538.20;128.00
55365;DHT22;41245;45.384;20.390;2023-06-10T03:23:18;538.40;128.00
55365;DHT22;41245;45.384;20.390;2023-06-10T03:25:44;538.50;128.00
55365;DHT22;41245;45.384;20.390;2023-06-10T03:28:11;563.30;128.00
55365;DHT22;41245;45.384;20.390;2023-06-10T03:30:36;563.30;128.00
55365;DHT22;41245;45.384;20.390;2023-06-10T03:33:02;563.20;128.00
55365;DHT22;41245;45.384;20.390;2023-06-10T03:35:29;563.30;128.00
55365;DHT22;41245;45.384;20.390;2023-06-10T03:37:54;563.40;128.00
55365;DHT22;41245;45.384;20.390;2023-06-10T03:40:20;538.40;128.00
55365;DHT22;41245;45.384;20.390;2023-06-10T03:42:46;538.20;128.00
55365;DHT22;41245;45.384;20.390;2023-06-10T03:45:12;537.70;128.00
55365;DHT22;41245;45.384;20.390;2023-06-10T03:47:38;512.80;128.00
55365;DHT22;41245;45.384;20.390;2023-06-10T03:50:06;512.80;128.00
55365;DHT22;41245;45.384;20.390;2023-06-10T03:52:33;512.70;128.00
55365;DHT22;41245;45.384;20.390;2023-06-10T03:54:59;512.80;128.00
55365;DHT22;41245;45.384;20.390;2023-06-10T03:57:25;512.80;128.00
55365;DHT22;41245;45.384;20.390;2023-06-10T03:59:51;512.80;128.00
55365;DHT22;41245;45.384;20.390;2023-06-10T04:02:16;512.90;128.00
55365;DHT22;41245;45.384;20.390;2023-06-10T04:04:43;512.90;128.00
55365;DHT22;41245;45.384;20.390;2023-06-10T04:07:09;512.60;128.00
55365;DHT22;41245;45.384;20.390;2023-06-10T04:09:35;537.70;128.00
55365;DHT22;41245;45.384;20.390;2023-06-10T04:12:04;537.80;128.00
55365;DHT22;41245;45.384;20.390;2023-06-10T04:14:31;538.00;128.00
55365;DHT22;41245;45.384;20.390;2023-06-10T04:16:57;538.00;128.00
55365;DHT22;41245;45.384;20.390;2023-06-10T04:19:23;538.00;128.00
55365;DHT22;41245;45.384;20.390;2023-06-10T04:21:48;538.00;128.00
55365;DHT22;41245;45.384;20.390;2023-06-10T04:24:14;538.10;128.00
55365;DHT22;41245;45.384;20.390;2023-06-10T04:26:40;538.20;128.00
55365;DHT22;41245;45.384;20.390;2023-06-10T04:29:05;538.10;128.00
55365;DHT22;41245;45.384;20.390;2023-06-10T04:31:31;538.40;128.00
55365;DHT22;41245;45.384;20.390;2023-06-10T04:33:57;538.40;128.00
55365;DHT22;41245;45.384;20.390;2023-06-10T04:36:23;563.20;128.00
55365;DHT22;41245;45.384;20.390;2023-06-10T04:38:49;563.50;128.00
55365;DHT22;41245;45.384;20.390;2023-06-10T04:41:17;563.80;128.00
55365;DHT22;41245;45.384;20.390;2023-06-10T04:43:43;564.00;128.00
55365;DHT22;41245;45.384;20.390;2023-06-10T04:46:09;588.90;128.00
55365;DHT22;41245;45.384;20.390;2023-06-10T04:48:35;588.80;128.00
55365;DHT22;41245;45.384;20.390;2023-06-10T04:51:02;589.20;128.00
55365;DHT22;41245;45.384;20.390;2023-06-10T04:53:28;589.60;128.00
55365;DHT22;41245;45.384;20.390;2023-06-10T04:55:54;614.60;128.00
55365;DHT22;41245;45.384;20.390;2023-06-10T04:58:20;589.10;128.00
55365;DHT22;41245;45.384;20.390;2023-06-10T05:00:45;588.80;128.00
55365;DHT22;41245;45.384;20.390;2023-06-10T05:03:11;564.10;128.00
55365;DHT22;41245;45.384;20.390;2023-06-10T05:05:37;564.00;128.00
55365;DHT22;41245;45.384;20.390;2023-06-10T05:08:02;563.90;128.00
55365;DHT22;41245;45.384;20.390;2023-06-10T05:10:28;564.00;128.00
55365;DHT22;41245;45.384;20.390;2023-06-10T05:12:57;563.70;128.00
55365;DHT22;41245;45.384;20.390;2023-06-10T05:15:24;563.90;128.00
55365;DHT22;41245;45.384;20.390;2023-06-10T05:17:50;563.80;128.00
55365;DHT22;41245;45.384;20.390;2023-06-10T05:20:15;563.90;128.00
55365;DHT22;41245;45.384;20.390;2023-06-10T05:22:41;588.80;128.00
55365;DHT22;41245;45.384;20.390;2023-06-10T05:25:08;589.00;128.00
55365;DHT22;41245;45.384;20.390;2023-06-10T05:27:33;564.10;128.00
55365;DHT22;41245;45.384;20.390;2023-06-10T05:29:59;564.00;128.00
55365;DHT22;41245;45.384;20.390;2023-06-10T05:32:25;564.00;128.00
55365;DHT22;41245;45.384;20.390;2023-06-10T05:34:50;588.80;128.00
55365;DHT22;41245;45.384;20.390;2023-06-10T05:37:16;589.40;128.00
55365;DHT22;41245;45.384;20.390;2023-06-10T05:39:42;614.40;128.00
55365;DHT22;41245;45.384;20.390;2023-06-10T05:42:08;589.60;128.00
55365;DHT22;41245;45.384;20.390;2023-06-10T05:44:34;614.60;128.00
55365;DHT22;41245;45.384;20.390;2023-06-10T05:47:00;615.20;128.00
55365;DHT22;41245;45.384;20.390;2023-06-10T05:49:25;640.00;128.00
55365;DHT22;41245;45.384;20.390;2023-06-10T05:51:51;640.20;128.00
55365;DHT22;41245;45.384;20.390;2023-06-10T05:54:18;640.40;128.00
55365;DHT22;41245;45.384;20.390;2023-06-10T05:56:44;640.30;128.00
55365;DHT22;41245;45.384;20.390;2023-06-10T05:59:10;640.40;128.00
55365;DHT22;41245;45.384;20.390;2023-06-10T06:01:35;640.40;128.00
55365;DHT22;41245;45.384;20.390;2023-06-10T06:04:01;640.40;128.00
55365;DHT22;41245;45.384;20.390;2023-06-10T06:06:27;691.60;153.60
55365;DHT22;41245;45.384;20.390;2023-06-10T06:08:53;691.40;153.60
55365;DHT22;41245;45.384;20.390;2023-06-10T06:11:18;793.90;358.40
55365;DHT22;41245;45.384;20.390;2023-06-10T06:13:44;870.90;870.40
55365;DHT22;41245;45.384;20.390;2023-06-10T06:16:10;870.90;1075.20
55365;DHT22;41245;45.384;20.390;2023-06-10T06:18:35;820.10;819.20
55365;DHT22;41245;45.384;20.390;2023-06-10T06:21:01;820.00;819.20
55365;DHT22;41245;45.384;20.390;2023-06-10T06:23:27;793.70;409.60
55365;DHT22;41245;45.384;20.390;2023-06-10T06:25:52;819.70;486.40
55365;DHT22;41245;45.384;20.390;2023-06-10T06:28:18;896.10;1203.20
55365;DHT22;41245;45.384;20.390;2023-06-10T06:30:46;947.30;1587.20
55365;DHT22;41245;45.384;20.390;2023-06-10T06:33:12;973.00;1843.20
55365;DHT22;41245;45.384;20.390;2023-06-10T06:35:38;972.80;1817.60
55365;DHT22;41245;45.384;20.390;2023-06-10T06:38:04;922.00;1561.60
55365;DHT22;41245;45.384;20.390;2023-06-10T06:40:30;870.40;1305.60
55365;DHT22;41245;45.384;20.390;2023-06-10T06:42:56;819.70;1075.20
55365;DHT22;41245;45.384;20.390;2023-06-10T06:45:21;793.90;716.80
55365;DHT22;41245;45.384;20.390;2023-06-10T06:47:47;768.20;307.20
55365;DHT22;41245;45.384;20.390;2023-06-10T06:50:13;768.00;332.80
55365;DHT22;41245;45.384;20.390;2023-06-10T06:52:39;743.10;281.60
55365;DHT22;41245;45.384;20.390;2023-06-10T06:55:05;742.70;204.80
55365;DHT22;41245;45.384;20.390;2023-06-10T07:02:23;692.10;153.60
55365;DHT22;41245;45.384;20.390;2023-06-10T07:04:49;692.10;153.60
55365;DHT22;41245;45.384;20.390;2023-06-10T07:07:15;716.80;179.20
55365;DHT22;41245;45.384;20.390;2023-06-10T07:09:41;717.30;230.40
55365;DHT22;41245;45.384;20.390;2023-06-10T07:12:07;717.50;281.60
55365;DHT22;41245;45.384;20.390;2023-06-10T07:14:33;742.40;281.60
55365;DHT22;41245;45.384;20.390;2023-06-10T07:16:59;717.60;307.20
55365;DHT22;41245;45.384;20.390;2023-06-10T07:19:24;717.40;204.80
55365;DHT22;41245;45.384;20.390;2023-06-10T07:21:50;717.10;179.20
55365;DHT22;41245;45.384;20.390;2023-06-10T07:24:16;717.30;179.20
55365;DHT22;41245;45.384;20.390;2023-06-10T07:26:41;717.60;179.20
55365;DHT22;41245;45.384;20.390;2023-06-10T07:29:07;742.60;307.20
55365;DHT22;41245;45.384;20.390;2023-06-10T07:31:33;742.40;204.80
55365;DHT22;41245;45.384;20.390;2023-06-10T07:33:59;742.50;307.20
55365;DHT22;41245;45.384;20.390;2023-06-10T07:36:24;716.80;179.20
55365;DHT22;41245;45.384;20.390;2023-06-10T07:46:11;691.50;153.60
55365;DHT22;41245;45.384;20.390;2023-06-10T07:48:37;691.20;153.60
55365;DHT22;41245;45.384;20.390;2023-06-10T07:51:03;666.40;153.60
55365;DHT22;41245;45.384;20.390;2023-06-10T07:53:28;691.50;153.60
55365;DHT22;41245;45.384;20.390;2023-06-10T07:55:55;691.50;153.60
55365;DHT22;41245;45.384;20.390;2023-06-10T07:58:21;666.50;153.60
55365;DHT22;41245;45.384;20.390;2023-06-10T08:00:47;691.30;153.60
55365;DHT22;41245;45.384;20.390;2023-06-10T08:03:13;692.00;153.60
55365;DHT22;41245;45.384;20.390;2023-06-10T08:44:55;768.70;307.20
55365;DHT22;41245;45.384;20.390;2023-06-10T08:47:23;768.90;435.20
55365;DHT22;41245;45.384;20.390;2023-06-10T08:49:51;768.80;281.60
55365;DHT22;41245;45.384;20.390;2023-06-10T08:52:19;768.60;332.80
55365;DHT22;41245;45.384;20.390;2023-06-10T08:54:57;768.00;384.00
55365;DHT22;41245;45.384;20.390;2023-06-10T08:57:25;717.60;179.20
55365;DHT22;41245;45.384;20.390;2023-06-10T11:32:22;742.50;204.80
55365;DHT22;41245;45.384;20.390;2023-06-10T11:34:54;717.60;179.20
55365;DHT22;41245;45.384;20.390;2023-06-10T11:37:21;717.60;179.20
55365;DHT22;41245;45.384;20.390;2023-06-10T11:39:51;717.60;179.20
55365;DHT22;41245;45.384;20.390;2023-06-10T11:42:16;717.60;179.20
55365;DHT22;41245;45.384;20.390;2023-06-10T11:44:49;742.50;204.80
55365;DHT22;41245;45.384;20.390;2023-06-10T11:47:15;742.80;204.80
55365;DHT22;41245;45.384;20.390;2023-06-10T11:49:40;717.70;281.60
55365;DHT22;41245;45.384;20.390;2023-06-10T11:52:06;717.70;179.20
55365;DHT22;41245;45.384;20.390;2023-06-10T11:54:32;742.40;204.80
55365;DHT22;41245;45.384;20.390;2023-06-10T11:56:59;717.70;256.00
55365;DHT22;41245;45.384;20.390;2023-06-10T11:59:29;717.70;179.20
55365;DHT22;41245;45.384;20.390;2023-06-10T12:01:55;742.40;204.80
55365;DHT22;41245;45.384;20.390;2023-06-10T12:04:21;742.50;204.80
55365;DHT22;41245;45.384;20.390;2023-06-10T12:06:49;742.40;204.80
55365;DHT22;41245;45.384;20.390;2023-06-10T12:11:44;742.70;204.80
55365;DHT22;41245;45.384;20.390;2023-06-10T12:14:10;742.80;204.80
55365;DHT22;41245;45.384;20.390;2023-06-10T12:16:36;743.00;204.80
55365;DHT22;41245;45.384;20.390;2023-06-10T12:19:03;743.20;204.80
55365;DHT22;41245;45.384;20.390;2023-06-10T12:39:15;794.40;819.20
55365;DHT22;41245;45.384;20.390;2023-06-10T12:41:50;794.10;998.40
55365;DHT22;41245;45.384;20.390;2023-06-10T12:44:16;794.10;998.40
55365;DHT22;41245;45.384;20.390;2023-06-10T12:46:42;794.00;972.80
55365;DHT22;41245;45.384;20.390;2023-06-10T12:49:08;794.40;947.20
55365;DHT22;41245;45.384;20.390;2023-06-10T12:51:33;794.40;844.80
55365;DHT22;41245;45.384;20.390;2023-06-10T12:54:00;768.70;947.20
55365;DHT22;41245;45.384;20.390;2023-06-10T12:56:26;768.10;588.80
55365;DHT22;41245;45.384;20.390;2023-06-10T12:58:53;717.50;256.00
55365;DHT22;41245;45.384;20.390;2023-06-10T13:01:19;717.30;179.20
55365;DHT22;41245;45.384;20.390;2023-06-10T13:03:44;717.30;204.80
55365;DHT22;41245;45.384;20.390;2023-06-10T13:06:10;716.90;256.00
55365;DHT22;41245;45.384;20.390;2023-06-10T13:08:36;716.90;256.00
55365;DHT22;41245;45.384;20.390;2023-06-10T13:11:01;717.20;307.20
55365;DHT22;41245;45.384;20.390;2023-06-10T13:13:27;717.70;281.60
55365;DHT22;41245;45.384;20.390;2023-06-10T13:15:54;742.70;307.20
55365;DHT22;41245;45.384;20.390;2023-06-10T13:18:19;717.30;230.40
55365;DHT22;41245;45.384;20.390;2023-06-10T13:20:45;717.20;256.00
55365;DHT22;41245;45.384;20.390;2023-06-10T13:23:11;717.50;256.00
55365;DHT22;41245;45.384;20.390;2023-06-10T13:25:36;717.30;256.00
55365;DHT22;41245;45.384;20.390;2023-06-10T13:28:02;717.20;281.60
55365;DHT22;41245;45.384;20.390;2023-06-10T13:30:28;717.40;256.00
55365;DHT22;41245;45.384;20.390;2023-06-10T13:32:54;717.50;256.00
55365;DHT22;41245;45.384;20.390;2023-06-10T13:35:20;717.60;281.60
55365;DHT22;41245;45.384;20.390;2023-06-10T13:37:45;717.20;230.40
55365;DHT22;41245;45.384;20.390;2023-06-10T13:40:11;717.20;204.80
55365;DHT22;41245;45.384;20.390;2023-06-10T13:42:37;716.80;179.20
55365;DHT22;41245;45.384;20.390;2023-06-10T14:45:57;665.90;153.60
55365;DHT22;41245;45.384;20.390;2023-06-10T15:34:49;665.70;153.60
55365;DHT22;41245;45.384;20.390;2023-06-10T16:01:39;665.60;179.20
55365;DHT22;41245;45.384;20.390;2023-06-10T16:04:04;640.70;128.00
55365;DHT22;41245;45.384;20.390;2023-06-10T16:06:30;640.70;128.00
55365;DHT22;41245;45.384;20.390;2023-06-10T18:00:59;615.30;128.00
55365;DHT22;41245;45.384;20.390;2023-06-10T18:03:25;615.10;128.00
55365;DHT22;41245;45.384;20.390;2023-06-10T18:47:19;589.10;128.00
55365;DHT22;41245;45.384;20.390;2023-06-10T19:01:57;588.90;128.00
55365;DHT22;41245;45.384;20.390;2023-06-10T19:04:23;564.10;128.00
55365;DHT22;41245;45.384;20.390;2023-06-10T19:09:15;588.80;128.00
55365;DHT22;41245;45.384;20.390;2023-06-10T19:11:41;564.10;128.00
55365;DHT22;41245;45.384;20.390;2023-06-10T19:14:07;564.00;128.00
55365;DHT22;41245;45.384;20.390;2023-06-10T19:16:32;563.90;128.00
55365;DHT22;41245;45.384;20.390;2023-06-10T19:18:58;563.90;128.00
55365;DHT22;41245;45.384;20.390;2023-06-10T19:21:24;563.80;128.00
55365;DHT22;41245;45.384;20.390;2023-06-10T19:23:50;563.80;128.00
55365;DHT22;41245;45.384;20.390;2023-06-10T19:26:15;563.80;128.00
55365;DHT22;41245;45.384;20.390;2023-06-10T19:28:41;563.70;128.00
55365;DHT22;41245;45.384;20.390;2023-06-10T19:31:07;563.60;128.00
55365;DHT22;41245;45.384;20.390;2023-06-10T19:33:32;563.50;128.00
55365;DHT22;41245;45.384;20.390;2023-06-10T19:35:58;563.50;128.00
55365;DHT22;41245;45.384;20.390;2023-06-10T19:38:24;563.50;128.00
55365;DHT22;41245;45.384;20.390;2023-06-10T19:40:50;563.40;128.00
55365;DHT22;41245;45.384;20.390;2023-06-10T19:43:16;563.50;128.00
55365;DHT22;41245;45.384;20.390;2023-06-10T19:45:42;563.40;128.00
55365;DHT22;41245;45.384;20.390;2023-06-10T19:48:07;563.40;128.00
55365;DHT22;41245;45.384;20.390;2023-06-10T19:50:33;563.30;128.00
55365;DHT22;41245;45.384;20.390;2023-06-10T19:53:00;563.30;128.00
55365;DHT22;41245;45.384;20.390;2023-06-10T19:55:25;563.20;128.00
55365;DHT22;41245;45.384;20.390;2023-06-10T19:57:51;563.20;128.00
55365;DHT22;41245;45.384;20.390;2023-06-10T20:00:20;563.20;128.00
55365;DHT22;41245;45.384;20.390;2023-06-10T20:02:47;563.30;128.00
55365;DHT22;41245;45.384;20.390;2023-06-10T20:05:12;563.20;128.00
55365;DHT22;41245;45.384;20.390;2023-06-10T20:07:38;538.50;128.00
55365;DHT22;41245;45.384;20.390;2023-06-10T20:10:04;563.20;128.00
55365;DHT22;41245;45.384;20.390;2023-06-10T20:12:30;538.50;128.00
55365;DHT22;41245;45.384;20.390;2023-06-10T20:14:55;538.50;128.00
55365;DHT22;41245;45.384;20.390;2023-06-10T20:17:21;538.40;128.00
55365;DHT22;41245;45.384;20.390;2023-06-10T20:19:47;538.40;128.00
55365;DHT22;41245;45.384;20.390;2023-06-10T20:22:20;538.50;128.00
55365;DHT22;41245;45.384;20.390;2023-06-10T20:24:47;538.40;128.00
55365;DHT22;41245;45.384;20.390;2023-06-10T20:27:13;538.40;128.00
55365;DHT22;41245;45.384;20.390;2023-06-10T20:29:39;538.40;128.00
55365;DHT22;41245;45.384;20.390;2023-06-10T20:32:05;538.40;128.00
55365;DHT22;41245;45.384;20.390;2023-06-10T20:34:31;538.50;128.00
55365;DHT22;41245;45.384;20.390;2023-06-10T20:36:57;538.30;128.00
55365;DHT22;41245;45.384;20.390;2023-06-10T20:39:23;538.30;128.00
55365;DHT22;41245;45.384;20.390;2023-06-10T20:41:49;538.30;128.00
55365;DHT22;41245;45.384;20.390;2023-06-10T20:44:16;538.30;128.00
55365;DHT22;41245;45.384;20.390;2023-06-10T20:46:41;538.20;128.00
55365;DHT22;41245;45.384;20.390;2023-06-10T20:49:07;538.20;128.00
55365;DHT22;41245;45.384;20.390;2023-06-10T20:51:33;538.20;128.00
55365;DHT22;41245;45.384;20.390;2023-06-10T20:54:00;538.20;128.00
55365;DHT22;41245;45.384;20.390;2023-06-10T20:56:25;538.10;128.00
55365;DHT22;41245;45.384;20.390;2023-06-10T20:58:52;538.00;128.00
55365;DHT22;41245;45.384;20.390;2023-06-10T21:01:18;537.90;128.00
55365;DHT22;41245;45.384;20.390;2023-06-10T21:03:43;537.90;128.00
55365;DHT22;41245;45.384;20.390;2023-06-10T21:06:09;537.90;128.00
55365;DHT22;41245;45.384;20.390;2023-06-10T21:08:36;537.80;128.00
55365;DHT22;41245;45.384;20.390;2023-06-10T21:11:02;537.90;128.00
55365;DHT22;41245;45.384;20.390;2023-06-10T21:13:27;537.90;128.00
55365;DHT22;41245;45.384;20.390;2023-06-10T21:15:53;537.90;128.00
55365;DHT22;41245;45.384;20.390;2023-06-10T21:18:19;537.80;128.00
55365;DHT22;41245;45.384;20.390;2023-06-10T21:20:44;537.80;128.00
55365;DHT22;41245;45.384;20.390;2023-06-10T21:23:11;537.70;128.00
55365;DHT22;41245;45.384;20.390;2023-06-10T21:25:37;537.70;128.00
55365;DHT22;41245;45.384;20.390;2023-06-10T21:28:03;537.70;128.00
55365;DHT22;41245;45.384;20.390;2023-06-10T21:30:28;537.70;128.00
55365;DHT22;41245;45.384;20.390;2023-06-10T21:32:55;537.70;128.00
55365;DHT22;41245;45.384;20.390;2023-06-10T21:35:21;537.70;128.00
55365;DHT22;41245;45.384;20.390;2023-06-10T21:37:46;537.60;128.00
55365;DHT22;41245;45.384;20.390;2023-06-10T21:40:13;537.60;128.00
55365;DHT22;41245;45.384;20.390;2023-06-10T21:42:39;537.60;128.00
55365;DHT22;41245;45.384;20.390;2023-06-10T21:45:05;537.60;128.00
55365;DHT22;41245;45.384;20.390;2023-06-10T21:47:31;537.60;128.00
55365;DHT22;41245;45.384;20.390;2023-06-10T21:49:56;537.60;128.00
55365;DHT22;41245;45.384;20.390;2023-06-10T21:52:22;537.60;128.00
55365;DHT22;41245;45.384;20.390;2023-06-10T21:54:48;512.90;128.00
55365;DHT22;41245;45.384;20.390;2023-06-10T21:57:13;512.80;128.00
55365;DHT22;41245;45.384;20.390;2023-06-10T21:59:39;512.90;128.00
55365;DHT22;41245;45.384;20.390;2023-06-10T22:02:06;512.90;128.00
55365;DHT22;41245;45.384;20.390;2023-06-10T22:04:32;512.80;128.00
55365;DHT22;41245;45.384;20.390;2023-06-10T22:06:58;512.80;128.00
55365;DHT22;41245;45.384;20.390;2023-06-10T22:09:23;512.80;128.00
55365;DHT22;41245;45.384;20.390;2023-06-10T22:11:50;512.80;128.00
55365;DHT22;41245;45.384;20.390;2023-06-10T22:14:15;512.70;128.00
55365;DHT22;41245;45.384;20.390;2023-06-10T22:16:41;512.60;128.00
55365;DHT22;41245;45.384;20.390;2023-06-10T22:19:07;512.50;128.00
55365;DHT22;41245;45.384;20.390;2023-06-10T22:21:33;512.60;128.00
55365;DHT22;41245;45.384;20.390;2023-06-10T22:23:59;512.50;128.00
55365;DHT22;41245;45.384;20.390;2023-06-10T22:26:25;512.50;128.00
55365;DHT22;41245;45.384;20.390;2023-06-10T22:28:53;512.60;128.00
55365;DHT22;41245;45.384;20.390;2023-06-10T22:31:19;512.50;128.00
55365;DHT22;41245;45.384;20.390;2023-06-10T22:33:45;512.50;128.00
55365;DHT22;41245;45.384;20.390;2023-06-10T22:36:10;512.30;128.00
55365;DHT22;41245;45.384;20.390;2023-06-10T22:38:36;512.40;128.00
55365;DHT22;41245;45.384;20.390;2023-06-10T22:41:02;512.40;128.00
55365;DHT22;41245;45.384;20.390;2023-06-10T22:43:28;512.40;128.00
55365;DHT22;41245;45.384;20.390;2023-06-10T22:45:54;512.50;128.00
55365;DHT22;41245;45.384;20.390;2023-06-10T22:48:19;512.40;128.00
55365;DHT22;41245;45.384;20.390;2023-06-10T22:50:46;512.50;128.00
55365;DHT22;41245;45.384;20.390;2023-06-10T22:53:12;512.50;128.00
55365;DHT22;41245;45.384;20.390;2023-06-10T22:55:38;512.50;128.00
55365;DHT22;41245;45.384;20.390;2023-06-10T22:58:03;512.50;128.00
55365;DHT22;41245;45.384;20.390;2023-06-10T23:00:29;512.50;128.00
55365;DHT22;41245;45.384;20.390;2023-06-10T23:02:56;512.60;128.00
55365;DHT22;41245;45.384;20.390;2023-06-10T23:05:21;512.60;128.00
55365;DHT22;41245;45.384;20.390;2023-06-10T23:07:47;512.40;128.00
55365;DHT22;41245;45.384;20.390;2023-06-10T23:10:13;512.30;128.00
55365;DHT22;41245;45.384;20.390;2023-06-10T23:12:38;512.30;128.00
55365;DHT22;41245;45.384;20.390;2023-06-10T23:15:04;512.30;128.00
55365;DHT22;41245;45.384;20.390;2023-06-10T23:17:30;512.30;128.00
55365;DHT22;41245;45.384;20.390;2023-06-10T23:19:56;512.40;128.00
55365;DHT22;41245;45.384;20.390;2023-06-10T23:22:27;512.40;128.00
55365;DHT22;41245;45.384;20.390;2023-06-10T23:24:58;512.40;128.00
55365;DHT22;41245;45.384;20.390;2023-06-10T23:27:26;512.40;128.00
55365;DHT22;41245;45.384;20.390;2023-06-10T23:29:53;512.40;128.00
55365;DHT22;41245;45.384;20.390;2023-06-10T23:32:19;512.40;128.00
55365;DHT22;41245;45.384;20.390;2023-06-10T23:34:45;512.30;128.00
55365;DHT22;41245;45.384;20.390;2023-06-10T23:37:11;512.40;128.00